Finland, Minnesota
Current Conditions -  °F | °C
As of 12:14 AM on Sunday 23 Nov 2014 (Local Time) from KBFW Reporting Station
Haze Haze  
Wind Chill: 36°   Ceiling: 600
Heat Index: 36°   Visibility: 5mi
Dew Point: 32°   Wind: 3mph
Humidity: 87%   Direction: 100°E
Pressure: 29.55"   Gusts: NA
Location:  47.41°N, 91.25°W
Report Text: KBFW 230614Z AUTO 10003KT 5SM BR OVC006 02/00 A2955 RMK AO2
Loading
Personal Weather Stations






























Interactive Weather Map New forecast layout! Learn more

10-Day Weather Forecast

Advertisements
Track Severe Weather on mobile